createdAt,value
2023-05-19T00:01:20.324Z,9.80
2023-05-19T00:03:57.542Z,9.80
2023-05-19T00:06:26.898Z,9.80
2023-05-19T00:09:03.207Z,9.70
2023-05-19T00:11:30.946Z,9.70
2023-05-19T00:13:59.944Z,9.70
2023-05-19T00:16:28.332Z,9.60
2023-05-19T00:18:57.171Z,9.60
2023-05-19T00:21:24.227Z,9.60
2023-05-19T00:23:51.147Z,9.70
2023-05-19T00:26:18.309Z,9.50
2023-05-19T00:28:45.182Z,9.50
2023-05-19T00:31:12.090Z,9.50
2023-05-19T00:33:38.928Z,9.50
2023-05-19T00:36:06.033Z,9.50
2023-05-19T00:38:34.618Z,9.50
2023-05-19T00:41:03.055Z,9.50
2023-05-19T00:43:30.634Z,9.40
2023-05-19T00:45:58.278Z,9.40
2023-05-19T00:48:26.110Z,9.30
2023-05-19T00:51:04.854Z,9.40
2023-05-19T00:53:33.613Z,9.40
2023-05-19T00:56:02.071Z,9.40
2023-05-19T00:58:30.676Z,9.30
2023-05-19T01:01:03.159Z,9.30
2023-05-19T01:03:32.051Z,9.30
2023-05-19T01:06:01.752Z,9.30
2023-05-19T01:08:29.576Z,9.20
2023-05-19T01:10:56.501Z,9.20
2023-05-19T01:13:23.767Z,9.20
2023-05-19T01:16:16.674Z,9.10
2023-05-19T01:18:56.231Z,9.20
2023-05-19T01:21:47.925Z,9.10
2023-05-19T01:24:45.506Z,9.10
2023-05-19T01:27:24.013Z,9.00
2023-05-19T01:30:25.513Z,9.10
2023-05-19T01:32:59.825Z,9.00
2023-05-19T01:35:28.741Z,9.00
2023-05-19T01:37:58.167Z,9.00
2023-05-19T01:40:27.587Z,9.00
2023-05-19T01:42:57.793Z,9.00
2023-05-19T01:45:26.192Z,8.90
2023-05-19T01:47:55.988Z,8.90
2023-05-19T01:50:23.127Z,8.80
2023-05-19T01:52:50.359Z,8.90
2023-05-19T01:55:17.447Z,8.80
2023-05-19T01:57:55.344Z,8.80
2023-05-19T02:00:42.227Z,8.80
2023-05-19T02:03:32.710Z,8.70
2023-05-19T02:06:35.008Z,8.70
2023-05-19T02:09:30.622Z,8.70
2023-05-19T02:12:25.946Z,8.80
2023-05-19T02:15:13.407Z,8.80
2023-05-19T02:17:44.310Z,8.70
2023-05-19T02:20:11.841Z,8.70
2023-05-19T02:22:38.851Z,8.70
2023-05-19T02:25:06.151Z,8.60
2023-05-19T02:27:34.192Z,8.60
2023-05-19T02:30:01.056Z,8.60
2023-05-19T02:32:27.954Z,8.50
2023-05-19T02:34:56.582Z,8.50
2023-05-19T02:37:24.740Z,8.50
2023-05-19T02:39:51.671Z,8.50
2023-05-19T02:42:18.466Z,8.50
2023-05-19T02:44:45.492Z,8.50
2023-05-19T02:47:13.093Z,8.50
2023-05-19T02:49:40.451Z,8.50
2023-05-19T02:52:07.382Z,8.40
2023-05-19T02:54:34.917Z,8.40
2023-05-19T02:57:02.223Z,8.40
2023-05-19T02:59:29.248Z,8.40
2023-05-19T03:01:59.471Z,8.40
2023-05-19T03:04:26.406Z,8.30
2023-05-19T03:06:54.226Z,8.30
2023-05-19T03:09:21.128Z,8.30
2023-05-19T03:11:47.945Z,8.20
2023-05-19T03:14:14.923Z,8.30
2023-05-19T03:16:42.285Z,8.20
2023-05-19T03:19:09.886Z,8.20
2023-05-19T03:21:36.894Z,8.30
2023-05-19T03:24:04.071Z,8.20
2023-05-19T03:26:30.963Z,8.10
2023-05-19T03:28:57.812Z,8.10
2023-05-19T03:31:24.911Z,8.10
2023-05-19T03:33:51.909Z,8.20
2023-05-19T03:36:18.836Z,8.10
2023-05-19T03:38:45.713Z,8.10
2023-05-19T03:41:12.543Z,8.10
2023-05-19T03:43:39.430Z,8.10
2023-05-19T03:46:06.481Z,8.10
2023-05-19T03:48:33.332Z,8.10
2023-05-19T03:51:00.167Z,8.10
2023-05-19T03:53:27.010Z,8.10
2023-05-19T03:55:55.547Z,8.10
2023-05-19T03:58:22.390Z,8.00
2023-05-19T04:00:49.223Z,8.00
2023-05-19T04:03:16.200Z,8.00
2023-05-19T04:05:43.290Z,8.00
2023-05-19T04:08:10.474Z,8.00
2023-05-19T04:10:37.522Z,8.00
2023-05-19T04:13:04.373Z,8.00
2023-05-19T04:15:31.361Z,8.10
2023-05-19T04:17:58.305Z,8.00
2023-05-19T04:20:25.266Z,8.00
2023-05-19T04:22:52.176Z,8.00
2023-05-19T04:25:20.193Z,8.00
2023-05-19T04:27:48.375Z,8.00
2023-05-19T04:30:22.045Z,7.90
2023-05-19T04:32:52.125Z,8.00
2023-05-19T04:35:19.445Z,8.00
2023-05-19T04:37:46.370Z,8.00
2023-05-19T04:40:13.632Z,8.00
2023-05-19T04:42:45.962Z,8.10
2023-05-19T04:45:14.041Z,8.10
2023-05-19T04:47:42.017Z,8.10
2023-05-19T04:50:11.149Z,8.10
2023-05-19T04:52:38.100Z,8.20
2023-05-19T04:55:05.290Z,8.20
2023-05-19T04:57:32.151Z,8.30
2023-05-19T05:00:00.387Z,8.30
2023-05-19T05:02:28.160Z,8.30
2023-05-19T05:04:56.689Z,8.40
2023-05-19T05:07:23.910Z,8.40
2023-05-19T05:09:51.130Z,8.50
2023-05-19T05:12:18.999Z,8.50
2023-05-19T05:14:46.158Z,8.50
2023-05-19T05:17:13.847Z,8.60
2023-05-19T05:19:41.074Z,8.70
2023-05-19T05:22:08.368Z,8.70
2023-05-19T05:24:35.614Z,8.80
2023-05-19T05:27:02.501Z,8.80
2023-05-19T05:29:29.391Z,8.80
2023-05-19T05:31:56.289Z,8.90
2023-05-19T05:34:23.475Z,8.90
2023-05-19T05:36:50.537Z,8.90
2023-05-19T05:39:17.405Z,9.00
2023-05-19T05:41:44.305Z,9.10
2023-05-19T05:44:11.137Z,9.20
2023-05-19T05:46:38.337Z,9.30
2023-05-19T05:49:05.645Z,9.30
2023-05-19T05:51:33.721Z,9.40
2023-05-19T05:54:02.030Z,9.40
2023-05-19T05:56:29.389Z,9.50
2023-05-19T05:58:56.805Z,9.60
2023-05-19T06:01:24.048Z,9.60
2023-05-19T06:03:51.395Z,9.70
2023-05-19T06:06:18.318Z,9.70
2023-05-19T06:08:45.153Z,9.80
2023-05-19T06:11:12.074Z,9.90
2023-05-19T06:13:41.377Z,9.90
2023-05-19T06:16:09.007Z,9.90
2023-05-19T06:18:35.908Z,9.90
2023-05-19T06:21:03.452Z,10.00
2023-05-19T06:23:33.475Z,10.10
2023-05-19T06:26:00.348Z,10.20
2023-05-19T06:28:27.321Z,10.40
2023-05-19T06:30:54.192Z,10.50
2023-05-19T06:33:21.091Z,10.90
2023-05-19T06:35:47.983Z,11.30
2023-05-19T06:38:14.914Z,11.70
2023-05-19T06:40:41.853Z,12.20
2023-05-19T06:43:08.772Z,12.50
2023-05-19T06:45:35.620Z,12.90
2023-05-19T06:48:02.912Z,13.10
2023-05-19T06:50:29.912Z,13.30
2023-05-19T06:52:58.311Z,13.70
2023-05-19T06:55:25.263Z,14.00
2023-05-19T06:57:52.086Z,14.20
2023-05-19T07:00:20.650Z,14.30
2023-05-19T07:02:50.048Z,14.50
2023-05-19T07:05:17.119Z,14.70
2023-05-19T07:07:44.313Z,14.90
2023-05-19T07:10:11.433Z,14.90
2023-05-19T07:12:38.353Z,15.10
2023-05-19T07:15:05.643Z,15.30
2023-05-19T07:17:32.524Z,15.50
2023-05-19T07:19:59.472Z,15.70
2023-05-19T07:22:26.366Z,15.80
2023-05-19T07:24:53.290Z,16.00
2023-05-19T07:27:20.195Z,16.10
2023-05-19T07:29:47.068Z,16.20
2023-05-19T07:32:14.090Z,16.40
2023-05-19T07:34:41.024Z,16.50
2023-05-19T07:37:08.024Z,16.60
2023-05-19T07:39:35.887Z,16.70
2023-05-19T07:42:03.098Z,16.90
2023-05-19T07:44:31.474Z,16.90
2023-05-19T07:46:58.691Z,17.00
2023-05-19T07:49:25.585Z,17.10
2023-05-19T07:51:53.140Z,17.30
2023-05-19T07:54:21.275Z,17.40
2023-05-19T07:56:48.334Z,17.50
2023-05-19T07:59:16.123Z,17.50
2023-05-19T08:01:43.056Z,17.50
2023-05-19T08:04:13.007Z,17.60
2023-05-19T08:06:42.672Z,17.70
2023-05-19T08:09:09.764Z,17.80
2023-05-19T08:11:37.092Z,17.90
2023-05-19T08:14:04.235Z,17.90
2023-05-19T08:16:31.178Z,18.00
2023-05-19T08:18:58.234Z,18.20
2023-05-19T08:21:25.105Z,18.30
2023-05-19T08:23:52.079Z,18.40
2023-05-19T08:26:18.911Z,18.30
2023-05-19T08:28:45.879Z,18.40
2023-05-19T08:31:12.808Z,18.30
2023-05-19T08:33:39.748Z,18.40
2023-05-19T08:36:06.801Z,18.50
2023-05-19T08:38:33.831Z,18.60
2023-05-19T08:41:01.483Z,18.70
2023-05-19T08:43:31.034Z,18.80
2023-05-19T08:46:00.756Z,18.90
2023-05-19T08:48:33.082Z,19.00
2023-05-19T08:51:27.297Z,19.10
2023-05-19T08:53:59.657Z,19.20
2023-05-19T08:56:27.659Z,19.20
2023-05-19T08:58:56.592Z,19.20
2023-05-19T09:01:24.133Z,19.20
2023-05-19T09:03:52.287Z,19.30
2023-05-19T09:06:24.803Z,19.30
2023-05-19T09:08:51.753Z,19.40
2023-05-19T09:11:18.678Z,19.50
2023-05-19T09:13:48.722Z,19.40
2023-05-19T09:16:17.862Z,19.40
2023-05-19T09:18:56.454Z,19.40
2023-05-19T09:21:33.274Z,19.20
2023-05-19T09:24:07.894Z,19.40
2023-05-19T09:26:42.104Z,19.50
2023-05-19T09:29:12.717Z,19.50
2023-05-19T09:31:39.739Z,19.60
2023-05-19T09:34:12.994Z,19.60
2023-05-19T09:36:41.621Z,19.60
2023-05-19T09:39:15.614Z,19.70
2023-05-19T09:41:42.965Z,19.80
2023-05-19T09:44:14.672Z,19.90
2023-05-19T09:46:48.551Z,20.10
2023-05-19T09:49:22.901Z,20.10
2023-05-19T09:52:02.422Z,20.20
2023-05-19T09:54:32.306Z,20.20
2023-05-19T09:57:01.276Z,19.90
2023-05-19T09:59:32.478Z,19.90
2023-05-19T10:02:01.396Z,20.00
2023-05-19T10:04:30.027Z,20.20
2023-05-19T10:07:01.207Z,20.10
2023-05-19T10:09:31.850Z,20.20
2023-05-19T10:11:59.234Z,20.20
2023-05-19T10:14:29.924Z,20.30
2023-05-19T10:16:58.658Z,20.30
2023-05-19T10:19:27.955Z,20.50
2023-05-19T10:21:56.052Z,21.00
2023-05-19T10:24:23.008Z,20.90
2023-05-19T10:27:03.773Z,20.60
2023-05-19T10:29:34.654Z,20.50
2023-05-19T10:32:08.054Z,20.30
2023-05-19T10:35:09.326Z,20.60
2023-05-19T10:37:57.469Z,20.80
2023-05-19T10:40:38.018Z,21.00
2023-05-19T10:43:30.072Z,21.30
2023-05-19T10:45:57.986Z,21.70
2023-05-19T10:48:24.997Z,22.10
2023-05-19T10:50:56.804Z,22.40
2023-05-19T10:53:34.896Z,22.60
2023-05-19T10:56:07.024Z,22.60
2023-05-19T10:58:36.839Z,22.90
2023-05-19T11:01:08.558Z,23.20
2023-05-19T11:03:48.571Z,23.30
2023-05-19T11:06:26.520Z,23.80
2023-05-19T11:08:58.222Z,23.70
2023-05-19T11:11:25.213Z,23.40
2023-05-19T11:13:56.308Z,23.50
2023-05-19T11:16:32.421Z,23.60
2023-05-19T11:18:59.773Z,23.90
2023-05-19T11:21:50.487Z,24.20
2023-05-19T11:24:37.039Z,24.10
2023-05-19T11:27:32.547Z,24.00
2023-05-19T11:30:02.047Z,24.10
2023-05-19T11:32:30.962Z,24.20
2023-05-19T11:34:58.403Z,24.40
2023-05-19T11:37:26.096Z,24.50
2023-05-19T11:39:53.270Z,24.80
2023-05-19T11:42:20.394Z,25.10
2023-05-19T11:44:47.507Z,25.20
2023-05-19T11:47:15.177Z,25.20
2023-05-19T11:49:49.068Z,25.30
2023-05-19T11:52:16.181Z,25.70
2023-05-19T11:54:43.589Z,25.60
2023-05-19T11:57:11.051Z,25.30
2023-05-19T11:59:39.233Z,25.10
2023-05-19T12:02:21.430Z,25.20
2023-05-19T12:04:52.132Z,25.00
2023-05-19T12:07:22.831Z,25.20
2023-05-19T12:09:51.753Z,25.30
2023-05-19T12:12:22.846Z,25.20
2023-05-19T12:14:54.109Z,25.10
2023-05-19T12:17:23.839Z,25.00
2023-05-19T12:19:51.613Z,25.20
2023-05-19T12:22:19.206Z,25.50
2023-05-19T12:24:47.329Z,25.60
2023-05-19T12:27:19.603Z,25.40
2023-05-19T12:29:57.261Z,25.20
2023-05-19T12:32:25.658Z,25.10
2023-05-19T12:34:53.910Z,24.90
2023-05-19T12:37:21.158Z,24.60
2023-05-19T12:39:51.224Z,24.40
2023-05-19T12:42:18.131Z,24.20
2023-05-19T12:44:47.348Z,23.80
2023-05-19T12:47:15.772Z,23.80
2023-05-19T12:49:58.869Z,23.90
2023-05-19T12:52:27.009Z,23.90
2023-05-19T12:55:05.719Z,23.70
2023-05-19T12:57:37.257Z,23.80
2023-05-19T13:00:17.474Z,24.40
2023-05-19T13:03:18.085Z,24.70
2023-05-19T13:05:47.216Z,24.50
2023-05-19T13:08:15.317Z,24.20
2023-05-19T13:10:44.667Z,23.80
2023-05-19T13:13:12.402Z,23.60
2023-05-19T13:15:41.964Z,23.70
2023-05-19T13:18:10.598Z,24.20
2023-05-19T13:20:38.783Z,24.90
2023-05-19T13:23:05.960Z,25.60
2023-05-19T13:25:34.261Z,25.30
2023-05-19T13:28:04.900Z,24.80
2023-05-19T13:30:36.811Z,24.30
2023-05-19T13:33:04.038Z,24.10
2023-05-19T13:35:38.000Z,24.00
2023-05-19T13:38:11.492Z,23.90
2023-05-19T13:40:39.628Z,24.30
2023-05-19T13:43:07.369Z,24.00
2023-05-19T13:45:34.356Z,23.90
2023-05-19T13:48:01.321Z,23.80
2023-05-19T13:50:28.224Z,23.50
2023-05-19T13:52:55.133Z,23.40
2023-05-19T13:55:23.267Z,23.40
2023-05-19T13:57:50.889Z,23.40
2023-05-19T14:00:18.959Z,24.30
2023-05-19T14:02:46.377Z,24.80
2023-05-19T14:05:13.464Z,24.80
2023-05-19T14:07:40.557Z,24.50
2023-05-19T14:10:08.102Z,24.00
2023-05-19T14:12:47.855Z,23.50
2023-05-19T14:15:19.932Z,23.80
2023-05-19T14:17:48.956Z,24.90
2023-05-19T14:20:16.020Z,25.70
2023-05-19T14:22:42.983Z,26.60
2023-05-19T14:25:10.042Z,27.20
2023-05-19T14:27:37.054Z,27.60
2023-05-19T14:30:04.393Z,28.20
2023-05-19T14:32:31.361Z,28.20
2023-05-19T14:34:58.351Z,28.40
2023-05-19T14:37:28.848Z,28.30
2023-05-19T14:39:57.147Z,28.30
2023-05-19T14:42:24.163Z,28.60
2023-05-19T14:44:51.038Z,28.60
2023-05-19T14:47:17.886Z,27.70
2023-05-19T14:49:44.743Z,26.70
2023-05-19T14:52:11.648Z,25.90
2023-05-19T14:54:38.515Z,25.10
2023-05-19T14:57:07.284Z,24.40
2023-05-19T14:59:37.874Z,24.30
2023-05-19T15:02:05.428Z,24.70
2023-05-19T15:04:32.332Z,25.30
2023-05-19T15:09:32.643Z,26.00
2023-05-19T15:12:01.295Z,25.60
2023-05-19T15:14:30.507Z,26.00
2023-05-19T15:16:58.212Z,26.60
2023-05-19T15:19:25.286Z,27.10
2023-05-19T15:21:52.551Z,26.80
2023-05-19T15:24:19.533Z,26.10
2023-05-19T15:26:47.298Z,25.50
2023-05-19T15:29:14.252Z,24.90
2023-05-19T15:31:41.365Z,24.70
2023-05-19T15:34:08.557Z,24.80
2023-05-19T15:36:35.607Z,24.50
2023-05-19T15:39:03.781Z,24.20
2023-05-19T15:41:30.851Z,23.90
2023-05-19T15:44:00.230Z,23.80
2023-05-19T15:46:27.700Z,23.40
2023-05-19T15:48:55.240Z,23.10
2023-05-19T15:51:22.349Z,22.80
2023-05-19T15:53:49.356Z,22.50
2023-05-19T15:56:16.796Z,22.20
2023-05-19T15:58:43.644Z,22.10
2023-05-19T16:01:10.676Z,21.90
2023-05-19T16:03:37.876Z,21.80
2023-05-19T16:06:05.129Z,21.80
2023-05-19T16:08:32.003Z,21.80
2023-05-19T16:10:58.916Z,21.90
2023-05-19T16:13:25.898Z,21.80
2023-05-19T16:15:52.960Z,21.80
2023-05-19T16:18:20.073Z,21.60
2023-05-19T16:20:46.955Z,21.40
2023-05-19T16:23:13.858Z,21.20
2023-05-19T16:25:41.448Z,21.10
2023-05-19T16:28:08.561Z,21.00
2023-05-19T16:30:35.784Z,20.90
2023-05-19T16:33:02.996Z,20.90
2023-05-19T16:35:29.943Z,20.70
2023-05-19T16:37:56.915Z,20.70
2023-05-19T16:40:24.073Z,20.70
2023-05-19T16:42:53.246Z,20.60
2023-05-19T16:45:20.104Z,20.60
2023-05-19T16:47:47.121Z,20.60
2023-05-19T16:50:14.088Z,20.60
2023-05-19T16:52:41.031Z,20.60
2023-05-19T16:55:08.313Z,20.60
2023-05-19T16:57:35.477Z,20.60
2023-05-19T17:00:03.618Z,20.60
2023-05-19T17:02:30.591Z,20.50
2023-05-19T17:04:57.715Z,20.30
2023-05-19T17:07:24.977Z,20.20
2023-05-19T17:09:53.067Z,20.10
2023-05-19T17:12:21.442Z,20.00
2023-05-19T17:14:51.948Z,20.00
2023-05-19T17:17:19.158Z,20.00
2023-05-19T17:19:46.816Z,20.00
2023-05-19T17:22:13.800Z,20.00
2023-05-19T17:24:41.266Z,20.00
2023-05-19T17:27:08.349Z,20.00
2023-05-19T17:29:35.413Z,20.00
2023-05-19T17:32:04.401Z,20.00
2023-05-19T17:34:31.358Z,19.90
2023-05-19T17:36:58.309Z,19.90
2023-05-19T17:39:25.280Z,19.80
2023-05-19T17:41:52.121Z,19.70
2023-05-19T17:44:18.987Z,19.60
2023-05-19T17:46:45.974Z,19.60
2023-05-19T17:49:13.919Z,19.50
2023-05-19T17:51:41.193Z,19.40
2023-05-19T17:54:08.522Z,19.40
2023-05-19T17:56:41.872Z,19.30
2023-05-19T17:59:09.175Z,19.30
2023-05-19T18:01:36.304Z,19.20
2023-05-19T18:04:03.889Z,19.10
2023-05-19T18:06:31.857Z,19.10
2023-05-19T18:09:00.966Z,19.00
2023-05-19T18:11:28.105Z,19.00
2023-05-19T18:13:55.068Z,18.90
2023-05-19T18:16:22.104Z,18.80
2023-05-19T18:18:50.571Z,18.80
2023-05-19T18:21:18.096Z,18.70
2023-05-19T18:23:45.773Z,18.70
2023-05-19T18:26:13.241Z,18.60
2023-05-19T18:28:43.422Z,18.40
2023-05-19T18:31:15.731Z,18.40
2023-05-19T18:33:43.431Z,18.30
2023-05-19T18:36:10.471Z,18.30
2023-05-19T18:38:37.507Z,18.10
2023-05-19T18:41:07.040Z,18.10
2023-05-19T18:43:34.445Z,18.00
2023-05-19T18:46:01.435Z,17.90
2023-05-19T18:48:28.494Z,17.80
2023-05-19T18:50:55.341Z,17.80
2023-05-19T18:53:22.829Z,17.70
2023-05-19T18:55:49.937Z,17.60
2023-05-19T18:58:18.334Z,17.60
2023-05-19T19:00:45.342Z,17.50
2023-05-19T19:03:12.687Z,17.50
2023-05-19T19:05:40.116Z,17.40
2023-05-19T19:08:07.111Z,17.40
2023-05-19T19:10:38.912Z,17.30
2023-05-19T19:13:06.425Z,17.30
2023-05-19T19:15:33.318Z,17.20
2023-05-19T19:18:00.908Z,17.20
2023-05-19T19:20:27.832Z,17.20
2023-05-19T19:22:54.953Z,17.10
2023-05-19T19:25:23.524Z,17.00
2023-05-19T19:27:51.197Z,16.90
2023-05-19T19:30:18.503Z,16.80
2023-05-19T19:32:45.506Z,16.80
2023-05-19T19:35:12.581Z,16.70
2023-05-19T19:37:39.550Z,16.70
2023-05-19T19:40:07.134Z,16.60
2023-05-19T19:42:34.413Z,16.60
2023-05-19T19:45:01.365Z,16.50
2023-05-19T19:47:28.319Z,16.40
2023-05-19T19:49:55.977Z,16.40
2023-05-19T19:52:22.882Z,16.30
2023-05-19T19:54:49.938Z,16.20
2023-05-19T19:57:17.346Z,16.20
2023-05-19T19:59:44.590Z,16.10
2023-05-19T20:02:11.610Z,16.00
2023-05-19T20:04:38.773Z,16.00
2023-05-19T20:07:05.916Z,16.00
2023-05-19T20:09:32.785Z,15.80
2023-05-19T20:11:59.876Z,15.80
2023-05-19T20:14:26.849Z,15.80
2023-05-19T20:16:53.758Z,15.80
2023-05-19T20:19:20.688Z,15.80
2023-05-19T20:21:47.682Z,15.60
2023-05-19T20:24:14.647Z,15.60
2023-05-19T20:26:44.359Z,15.50
2023-05-19T20:29:11.218Z,15.40
2023-05-19T20:31:42.567Z,15.50
2023-05-19T20:34:12.749Z,15.40
2023-05-19T20:36:39.635Z,15.30
2023-05-19T20:39:07.055Z,15.20
2023-05-19T20:41:33.933Z,15.30
2023-05-19T20:44:00.872Z,15.20
2023-05-19T20:46:27.957Z,15.20
2023-05-19T20:48:54.890Z,15.10
2023-05-19T20:51:22.362Z,15.10
2023-05-19T20:53:49.369Z,15.00
2023-05-19T20:56:16.976Z,15.00
2023-05-19T20:58:50.043Z,14.90
2023-05-19T21:01:17.288Z,15.00
2023-05-19T21:03:44.250Z,14.90
2023-05-19T21:06:13.910Z,14.80
2023-05-19T21:08:40.911Z,14.80
2023-05-19T21:11:08.318Z,14.70
2023-05-19T21:13:39.042Z,14.70
2023-05-19T21:16:07.372Z,14.50
2023-05-19T21:18:34.941Z,14.60
2023-05-19T21:21:06.627Z,14.60
2023-05-19T21:23:33.714Z,14.50
2023-05-19T21:26:00.694Z,14.50
2023-05-19T21:28:27.873Z,14.50
2023-05-19T21:30:54.782Z,14.50
2023-05-19T21:33:21.785Z,14.40
2023-05-19T21:35:48.665Z,14.40
2023-05-19T21:38:23.381Z,14.40
2023-05-19T21:40:51.913Z,14.40
2023-05-19T21:43:19.447Z,14.40
2023-05-19T21:45:46.434Z,14.30
2023-05-19T21:48:13.405Z,14.30
2023-05-19T21:50:42.690Z,14.30
2023-05-19T21:53:09.634Z,14.20
2023-05-19T21:55:39.117Z,14.20
2023-05-19T21:58:06.175Z,14.20
2023-05-19T22:00:33.196Z,14.20
2023-05-19T22:03:00.767Z,14.10
2023-05-19T22:05:35.082Z,14.10
2023-05-19T22:08:05.370Z,14.10
2023-05-19T22:10:32.370Z,14.10
2023-05-19T22:12:59.502Z,14.10
2023-05-19T22:15:26.715Z,14.10
2023-05-19T22:17:56.391Z,14.00
2023-05-19T22:20:23.372Z,14.00
2023-05-19T22:22:50.288Z,14.00
2023-05-19T22:25:17.311Z,13.90
2023-05-19T22:27:44.528Z,13.90
2023-05-19T22:30:12.231Z,13.90
2023-05-19T22:32:39.129Z,13.80
2023-05-19T22:35:06.650Z,13.80
2023-05-19T22:37:33.593Z,13.80
2023-05-19T22:40:00.680Z,13.80
2023-05-19T22:42:30.641Z,13.80
2023-05-19T22:45:02.600Z,13.80
2023-05-19T22:47:30.073Z,13.80
2023-05-19T22:49:57.252Z,13.80
2023-05-19T22:52:24.272Z,13.70
2023-05-19T22:54:51.135Z,13.70
2023-05-19T22:57:19.292Z,13.70
2023-05-19T22:59:46.125Z,13.70
2023-05-19T23:02:13.395Z,13.60
2023-05-19T23:04:40.296Z,13.70
2023-05-19T23:07:07.578Z,13.60
2023-05-19T23:09:43.808Z,13.60
2023-05-19T23:12:10.784Z,13.60
2023-05-19T23:14:40.500Z,13.60
2023-05-19T23:17:07.514Z,13.50
2023-05-19T23:19:35.307Z,13.50
2023-05-19T23:22:02.164Z,13.50
2023-05-19T23:24:29.002Z,13.50
2023-05-19T23:26:56.253Z,13.40
2023-05-19T23:29:23.121Z,13.40
2023-05-19T23:31:50.064Z,13.40
2023-05-19T23:34:16.999Z,13.40
2023-05-19T23:36:43.940Z,13.30
2023-05-19T23:39:11.417Z,13.30
2023-05-19T23:41:38.394Z,13.30
2023-05-19T23:44:05.606Z,13.20
2023-05-19T23:46:32.636Z,13.20
2023-05-19T23:48:59.612Z,13.20
2023-05-19T23:51:26.616Z,13.20
2023-05-19T23:53:53.449Z,13.10
2023-05-19T23:56:20.318Z,13.10
2023-05-19T23:58:47.191Z,13.00
